South Mason Valley, Nevada Weather observations

Data are for 10 minute period ending at time listed.
 Day   Time   Solar   Ave.   Ave.  Ave.  Vector  Max.   Baro.   Total    
  of    of     Rad.   Air    Rel.  Wind   Wind   Wind  Press.  Precip.   
Year   Day            Temp.  Hum.  Speed  Dir.   Gust                    
2014   (PST)  Kw/m2    F      %     mph   deg.    mph    mb.     in.     
-------------------------------------------------------------------------
 209   13:50   0.20   89.2    17    3.0   135     4.5   881.8    0.00 
 209   14:00   0.17   88.8    18    3.0   127     4.2   881.8    0.00 
 209   14:10   0.16   88.4    18    3.0   137     3.9   881.8    0.00 
 209   14:20   0.14   87.8    22    2.9   134     3.9   881.6    0.00 
 209   14:30   0.14   86.3    28    3.2    72     4.7   881.7    0.00 
 209   14:40   0.14   85.2    27    4.4    40     7.7   881.7    0.00 
 209   14:50   0.13   87.0    18    8.0    32    14.8   881.7    0.00 
 209   15:00   0.13   87.5    16    8.3    64    17.6   881.6    0.00 
 209   15:10   0.14   88.0    15    7.3    82    13.5   881.5    0.00 
 209   15:20   0.15   87.2    18    9.1   104    16.1   881.4    0.00 
 209   15:30   0.16   87.0    17    9.6   101    17.5   881.4    0.00 
 209   15:40   0.16   87.2    17    8.8    84    16.7   881.4    0.00 
 209   15:50   0.15   86.9    17    7.9    74    14.6   881.4    0.00 
 209   16:00   0.14   87.7    16    7.7    78    13.9   881.4    0.00 
 209   16:10   0.11   85.9    20    7.2   103    11.4   881.6    0.00 
 209   16:20   0.09   85.3    21   11.0   143    18.8   881.8    0.00 
 209   16:30   0.09   82.7    27   16.3   170    24.8   881.8    0.00 
 209   16:40   0.10   81.4    30   16.6   169    24.0   881.9    0.00 
 209   16:50   0.09   80.6    31   16.1   173    24.8   881.9    0.00 
 209   17:00   0.09   80.3    31   15.0   173    21.5   882.1    0.00 
 209   17:10   0.11   80.0    32   14.6   182    20.5   882.4    0.00 
 209   17:20   0.12   80.2    32   15.5   192    22.8   882.6    0.00 
 209   17:30   0.10   79.9    33   15.5   193    25.7   882.5    0.00 
 209   17:40   0.06   79.4    33   15.0   191    23.5   882.5    0.00 
 209   17:50   0.05   79.5    32   15.0   179    22.4   882.4    0.00 
 209   18:00   0.04   79.5    31   14.2   177    22.3   882.4    0.00 
 209   18:10   0.03   79.5    30   13.9   175    22.0   882.4    0.00 
 209   18:20   0.03   79.3    31   10.6   198    17.9   882.7    0.00 
 209   18:30   0.03   79.4    30   11.7   196    16.2   882.7    0.00 
 209   18:40   0.02   79.0    32    9.9   169    14.0   882.8    0.00 
 209   18:50   0.01   77.9    34    9.2   166    13.7   882.8    0.00 
 209   19:00   0.01   76.9    38    8.6   176    12.7   882.9    0.00 
 209   19:10   0.00   76.2    40    6.9   163    11.1   883.0    0.00 
 209   19:20   0.00   75.3    42    7.3   148    11.3   883.1    0.00 
 209   19:30   0.00   75.1    42    9.4   160    13.0   883.2    0.00 
 209   19:40   0.00   74.9    42    8.8   173    13.7   883.2    0.00 
 209   19:50   0.00   74.2    44    7.6   177    10.4   883.4    0.00 
 209   20:00   0.00   73.5    46    7.7   181    11.8   883.3    0.00 
 209   20:10   0.00   73.6    45    7.8   170    11.5   883.4    0.00 
 209   20:20   0.00   73.9    45    6.7   178     9.5   883.5    0.00 
 209   20:30   0.00   73.1    47    6.4   176    10.0   883.5    0.00 
 209   20:40   0.00   73.2    48    5.8   164     7.3   883.6    0.00 
 209   20:50   0.00   72.6    50    6.4   160     8.3   883.6    0.00 
 209   21:00   0.00   73.1    48    6.5   169     9.2   883.5    0.00 
 209   21:10   0.00   73.1    49    7.1   176    11.7   883.3    0.00 
 209   21:20   0.00   73.3    48    7.2   178    10.1   883.2    0.00 
 209   21:30   0.00   73.6    47    7.5   178    11.0   883.1    0.00 
 209   21:40   0.00   73.8    46    7.1   178     9.3   883.0    0.00 
 209   21:50   0.00   73.6    46    6.8   176    10.2   883.1    0.00 
 209   22:00   0.00   73.6    46    6.8   177     9.6   883.0    0.00 
 209   22:10   0.00   73.3    46    5.2   194     7.9   883.2    0.00 
 209   22:20   0.00   72.8    48    3.6   171     6.4   883.2    0.00 
 209   22:30   0.00   72.1    49    3.7   182     5.2   883.1    0.00 
 209   22:40   0.00   71.8    49    4.0   193     5.5   883.0    0.00 
 209   22:50   0.00   71.6    50    2.8   173     4.2   882.9    0.00 
 209   23:00   0.00   70.8    52    3.4   136     4.7   882.9    0.00 
 209   23:10   0.00   70.4    53    2.8   126     3.6   882.9    0.00 
 209   23:20   0.00   70.5    53    2.5   186     3.9   882.8    0.00 
 209   23:30   0.00   69.7    55    3.2   201     4.5   882.7    0.00 
 209   23:40   0.00   70.7    52    4.0   206     4.7   882.7    0.00 
 209   23:50   0.00   71.2    50    3.1   189     4.8   882.7    0.00 
 210    0:00   0.00   70.6    52    2.2   165     4.0   882.7    0.00 
 210    0:10   0.00   70.4    52    1.6   233     3.1   882.7    0.00 
 210    0:20   0.00   70.7    51    2.0   185     3.4   882.7    0.00 
 210    0:30   0.00   70.1    52    1.2   176     1.6   882.6    0.00 
 210    0:40   0.00   69.0    54    3.1   144     4.7   882.6    0.00 
 210    0:50   0.00   68.7    53    4.4   146     5.8   882.6    0.00 
 210    1:00   0.00   69.2    53    3.4   159     6.3   882.6    0.00 
 210    1:10   0.00   68.5    55    2.9   162     5.0   882.7    0.00 
 210    1:20   0.00   67.7    58    3.6   176     5.8   882.6    0.00 
 210    1:30   0.00   68.4    56    3.4   174     5.6   882.6    0.00 
 210    1:40   0.00   67.9    58    2.3   176     3.9   882.6    0.00 
 210    1:50   0.00   67.8    58    2.6   156     3.5   882.7    0.00 
 210    2:00   0.00   67.5    59    3.2   153     4.1   882.7    0.00 
 210    2:10   0.00   67.6    59    2.9   161     3.4   882.6    0.00 
 210    2:20   0.00   67.4    59    2.5   191     3.7   882.5    0.00 
 210    2:30   0.00   68.0    58    2.8   194     3.7   882.5    0.00 
 210    2:40   0.00   67.7    59    2.1   174     3.1   882.6    0.00 
 210    2:50   0.00   66.3    63    3.3   138     4.5   882.7    0.00 
 210    3:00   0.00   65.9    63    3.0   181     4.0   882.6    0.00 
 210    3:10   0.00   65.8    64    1.8   196     2.3   882.6    0.00 
 210    3:20   0.00   65.6    64    2.0   174     3.1   882.6    0.00 
 210    3:30   0.00   65.7    62    2.5   163     4.5   882.6    0.00 
 210    3:40   0.00   65.6    60    3.0   156     4.9   882.7    0.00 
 210    3:50   0.00   65.6    60    1.5   162     3.7   882.6    0.00 
 210    4:00   0.00   65.9    58    1.7   166     3.4   882.5    0.00 
 210    4:10   0.00   65.3    60    1.5   146     2.9   882.6    0.00 
 210    4:20   0.00   64.8    61    1.7   138     3.2   882.6    0.00 
 210    4:30   0.00   65.1    60    2.1   165     2.9   882.6    0.00 
 210    4:40   0.00   64.8    60    3.1   177     4.5   882.6    0.00 
 210    4:50   0.00   64.3    62    3.2   166     4.4   882.7    0.00 
 210    5:00   0.00   63.7    63    3.4   164     4.4   882.7    0.00 
 210    5:10   0.01   64.0    63    3.0   205     3.9   882.7    0.00 
 210    5:20   0.02   64.8    61    2.4   227     3.5   882.8    0.00 
 210    5:30   0.03   65.7    59    1.7   172     2.5   882.9    0.00 
 210    5:40   0.04   65.7    59    1.7   142     3.4   882.9    0.00 
 210    5:50   0.05   65.3    62    2.7   164     3.7   882.9    0.00 
 210    6:00   0.07   65.7    62    1.6   170     2.8   883.0    0.00 
 210    6:10   0.08   66.1    63    2.6   162     3.3   883.0    0.00 
 210    6:20   0.14   66.9    63    2.5   153     3.2   883.0    0.00 
 210    6:30   0.16   69.1    58    3.4   159     4.8   883.1    0.00 
 210    6:40   0.15   71.1    54    2.9   174     4.0   883.1    0.00 
 210    6:50   0.13   71.4    53    3.7   190     5.3   883.2    0.00 
 210    7:00   0.18   72.3    52    3.2   178     5.1   883.3    0.00 
 210    7:10   0.21   73.3    51    3.0   162     4.2   883.3    0.00 
 210    7:20   0.33   75.1    46    4.0   162     5.7   883.4    0.00 
 210    7:30   0.35   76.8    43    4.5   150     5.9   883.5    0.00 
 210    7:40   0.24   76.6    44    4.3   135     5.6   883.6    0.00 
 210    7:50   0.26   76.5    44    4.6   131     7.5   883.6    0.00 
 210    8:00   0.34   77.3    43    5.0   135     6.9   883.6    0.00 
 210    8:10   0.34   78.4    40    4.8   131     7.2   883.6    0.00 
 210    8:20   0.44   79.3    37    5.9   126     8.9   883.7    0.00 
 210    8:30   0.38   79.5    38    5.9   121     8.7   883.8    0.00 
 210    8:40   0.24   78.7    38    5.2   131     9.2   883.7    0.00 
 210    8:50   0.24   78.7    37    5.6   141     8.2   883.7    0.00 
 210    9:00   0.26   78.7    39    5.3   133     7.8   883.7    0.00 
 210    9:10   0.45   79.8    37    4.7   128     6.4   883.7    0.00 
 210    9:20   0.66   82.3    33    5.1   116     7.7   883.7    0.00 
 210    9:30   0.88   84.1    29    5.0    94     7.3   883.7    0.00 
 210    9:40   0.92   85.4    26    4.8    91     7.4   883.7    0.00 
 210    9:50   0.97   86.3    24    4.5    93     7.5   883.7    0.00 
 210   10:00   0.85   86.8    22    5.5   104     8.6   883.6    0.00 
 210   10:10   0.45   85.3    23    4.2    89     7.7   883.6    0.00 
 210   10:20   0.68   86.6    22    2.6    76     7.7   883.6    0.00 
 210   10:30   0.72   87.6    20    3.4   138     5.6   883.5    0.00 
 210   10:40   0.54   87.4    18    3.1   136     5.4   883.4    0.00 
 210   10:50   0.71   87.7    19    2.8   112     5.0   883.5    0.00 
 210   11:00   1.05   88.9    18    3.1   100     7.2   883.4    0.00 
 210   11:10   0.71   89.2    17    2.3   103     6.7   883.3    0.00 
 210   11:20   0.80   88.6    17    2.8   181     5.3   883.3    0.00 
 210   11:30   0.76   90.6    16    1.8   183     6.2   883.2    0.00 
 210   11:40   0.52   88.3    20    5.0   104     7.8   883.1    0.00 
 210   11:50   0.52   87.4    22    4.3    77     8.7   883.1    0.00 
 210   12:00   0.47   87.5    20    4.4   103     7.8   883.1    0.00 
 210   12:10   0.34   86.6    21    6.0    94     9.6   883.1    0.00 
 210   12:20   0.82   87.7    20    3.9    99     8.0   883.0    0.00 
 210   12:30   0.89   89.4    18    5.2    99     9.1   883.0    0.00 
 210   12:40   0.76   89.1    18    3.9   104     7.3   882.8    0.00 
 210   12:50   0.96   90.3    17    3.8   146     8.3   882.7    0.00 
 210   13:00   0.98   90.9    16    3.4   132     6.6   882.6    0.00 
 210   13:10   0.90   91.7    16    3.0    68     6.1   882.5    0.00 
 210   13:20   0.91   91.3    16    3.5    99     9.1   882.3    0.00 
 210   13:30   0.90   91.2    16    6.6   121    13.5   882.2    0.00 
 210   13:40   0.88   91.9    16    4.9   110     8.9   882.1    0.00 

Return to south Mason Valley graphs page.


Western Regional Climate Center,wrcc@dri.edu